Time;durP1;ratioP1;P1;durP2;ratioP2;P2;SDS_P1;SDS_P2;PMS_P1;PMS_P2;Temp;Humidity;BMP_temperature;BMP_pressure;BME280_temperature;BME280_humidity;BME280_pressure;Samples;Min_cycle;Max_cycle;Signal;HPM_P1;HPM_P2
2021/01/29 00:02:15;;;;;;;14.10;3.90;;;11.00;99.90;;;;;;5121904;27;20289;-77
2021/01/29 00:04:44;;;;;;;6.83;3.00;;;11.00;99.90;;;;;;5115816;27;20329;-77
2021/01/29 00:07:10;;;;;;;12.47;3.13;;;11.10;99.90;;;;;;5123674;27;20195;-76
2021/01/29 00:09:37;;;;;;;9.97;3.40;;;11.10;99.90;;;;;;5116290;27;20201;-76
2021/01/29 00:12:04;;;;;;;13.07;3.50;;;11.10;99.90;;;;;;5125142;27;20296;-77
2021/01/29 00:14:31;;;;;;;10.57;2.80;;;11.00;99.90;;;;;;5124038;27;20307;-77
2021/01/29 00:16:57;;;;;;;11.20;2.97;;;11.00;99.90;;;;;;5112909;28;20323;-76
2021/01/29 00:19:24;;;;;;;11.63;2.63;;;11.10;99.90;;;;;;5113025;28;20582;-77
2021/01/29 00:21:51;;;;;;;7.67;3.07;;;11.00;99.90;;;;;;5112571;28;20291;-77
2021/01/29 00:24:18;;;;;;;7.87;2.80;;;11.00;99.90;;;;;;5112156;28;20309;-76
2021/01/29 00:26:45;;;;;;;11.33;3.07;;;11.00;99.90;;;;;;5113121;28;20198;-77
2021/01/29 00:29:11;;;;;;;10.73;3.57;;;11.00;99.90;;;;;;5113495;28;20490;-77
2021/01/29 00:31:38;;;;;;;12.80;2.60;;;11.10;99.90;;;;;;5112896;28;20323;-77
2021/01/29 00:34:05;;;;;;;8.47;2.40;;;11.10;99.90;;;;;;5112571;28;20223;-76
2021/01/29 00:36:31;;;;;;;11.27;2.43;;;11.10;99.90;;;;;;5112896;28;20206;-76
2021/01/29 00:38:58;;;;;;;11.07;3.20;;;11.10;99.90;;;;;;5113046;28;20367;-76
2021/01/29 00:41:25;;;;;;;8.87;2.93;;;11.10;99.90;;;;;;5112575;28;20202;-76
2021/01/29 00:43:52;;;;;;;10.80;2.63;;;11.10;99.90;;;;;;5112627;28;20236;-76
2021/01/29 00:46:19;;;;;;;6.63;2.43;;;11.10;99.90;;;;;;5112166;28;20232;-76
2021/01/29 00:48:45;;;;;;;9.83;3.03;;;11.10;99.90;;;;;;5112545;28;20291;-76
2021/01/29 00:51:11;;;;;;;9.93;2.90;;;11.10;99.90;;;;;;5112249;28;20745;-76
2021/01/29 00:53:39;;;;;;;6.33;2.80;;;11.10;99.90;;;;;;5112944;28;20272;-76
2021/01/29 00:56:07;;;;;;;7.17;2.43;;;11.00;99.90;;;;;;5112194;28;20295;-75
2021/01/29 00:58:33;;;;;;;6.47;2.53;;;11.10;99.90;;;;;;5112968;28;20204;-76
2021/01/29 01:01:00;;;;;;;6.13;2.30;;;11.10;99.90;;;;;;5112278;28;20236;-76
2021/01/29 01:03:27;;;;;;;10.93;2.50;;;11.00;99.90;;;;;;5112902;28;20283;-76
2021/01/29 01:05:54;;;;;;;5.70;2.40;;;11.00;99.90;;;;;;5112197;28;20209;-76
2021/01/29 01:08:20;;;;;;;5.63;2.47;;;11.10;99.90;;;;;;5112390;28;20291;-76
2021/01/29 01:10:47;;;;;;;5.67;2.57;;;11.10;99.90;;;;;;5112294;28;20204;-76
2021/01/29 01:13:14;;;;;;;4.97;2.50;;;11.00;99.90;;;;;;5112044;28;20802;-76
2021/01/29 01:15:40;;;;;;;6.97;2.17;;;11.00;99.90;;;;;;5112131;28;20291;-76
2021/01/29 01:18:07;;;;;;;5.27;2.27;;;11.00;99.90;;;;;;5112320;28;20684;-76
2021/01/29 01:20:34;;;;;;;3.70;2.07;;;11.10;99.90;;;;;;5112272;28;20207;-76
2021/01/29 01:23:01;;;;;;;4.77;2.03;;;11.00;99.90;;;;;;5112706;28;20209;-76
2021/01/29 01:25:27;;;;;;;3.47;1.93;;;11.10;99.90;;;;;;5112434;28;20257;-76
2021/01/29 01:27:55;;;;;;;5.83;1.83;;;11.10;99.90;;;;;;5112453;28;20295;-76
2021/01/29 01:30:25;;;;;;;3.60;2.00;;;11.10;99.90;;;;;;5112020;28;20690;-76
2021/01/29 01:32:51;;;;;;;3.27;2.00;;;11.20;99.90;;;;;;5112579;28;20287;-76
2021/01/29 01:35:20;;;;;;;3.13;2.00;;;11.20;99.90;;;;;;5112400;28;20205;-77
2021/01/29 01:37:47;;;;;;;1.87;1.53;;;11.20;99.90;;;;;;5112475;28;20202;-75
2021/01/29 01:40:15;;;;;;;4.13;1.50;;;11.20;99.90;;;;;;5112539;28;20288;-76
2021/01/29 01:42:41;;;;;;;4.40;1.93;;;11.20;99.90;;;;;;5111787;28;20278;-76
2021/01/29 01:45:43;;;;;;;3.57;1.70;;;11.30;99.90;;;;;;5112303;28;20637;-76
2021/01/29 01:48:14;;;;;;;2.70;1.83;;;11.30;99.90;;;;;;5105379;28;20299;-76
2021/01/29 01:50:43;;;;;;;3.70;1.90;;;11.20;99.90;;;;;;5112148;28;20289;-76
2021/01/29 01:53:19;;;;;;;2.40;1.80;;;11.20;99.90;;;;;;5112041;28;20282;-76
2021/01/29 01:55:50;;;;;;;4.33;2.03;;;11.20;99.90;;;;;;5112052;28;20252;-76
2021/01/29 01:58:17;;;;;;;3.20;1.80;;;11.20;99.90;;;;;;5115917;28;20194;-76
2021/01/29 02:00:43;;;;;;;3.80;2.17;;;11.30;99.90;;;;;;5115927;28;20220;-76
2021/01/29 02:03:17;;;;;;;1.97;1.70;;;11.20;99.90;;;;;;5115861;27;20211;-76
2021/01/29 02:05:43;;;;;;;3.80;1.60;;;11.20;99.90;;;;;;5115641;28;20788;-76
2021/01/29 02:08:12;;;;;;;2.63;1.40;;;11.30;99.90;;;;;;5114841;28;20749;-75
2021/01/29 02:10:39;;;;;;;1.67;0.80;;;11.20;99.90;;;;;;5115828;28;20291;-75
2021/01/29 02:13:07;;;;;;;2.07;0.70;;;11.20;99.90;;;;;;5115162;28;20243;-76
2021/01/29 02:15:37;;;;;;;1.00;0.50;;;11.10;99.90;;;;;;5115846;28;20331;-76
2021/01/29 02:18:15;;;;;;;1.93;0.70;;;11.10;99.90;;;;;;5115404;28;20749;-76
2021/01/29 02:21:21;;;;;;;0.40;0.30;;;11.20;99.90;;;;;;5115583;28;20210;-75
2021/01/29 02:24:23;;;;;;;1.50;0.53;;;11.20;99.90;;;;;;5113862;28;20201;-76
2021/01/29 02:27:19;;;;;;;2.40;0.90;;;11.10;99.90;;;;;;5115233;28;20210;-75
2021/01/29 02:30:24;;;;;;;2.27;1.00;;;11.20;99.90;;;;;;5115513;28;20202;-75
2021/01/29 02:33:27;;;;;;;4.33;1.20;;;11.30;99.90;;;;;;5114965;28;20200;-76
2021/01/29 02:36:42;;;;;;;1.10;0.80;;;11.30;99.90;;;;;;5111740;27;20203;-76
2021/01/29 02:39:39;;;;;;;1.10;1.00;;;11.30;99.90;;;;;;5114719;28;20285;-76
2021/01/29 02:42:33;;;;;;;1.00;0.90;;;11.30;99.90;;;;;;5114867;28;20232;-76
2021/01/29 02:45:10;;;;;;;2.10;0.90;;;11.30;99.90;;;;;;5107548;28;20657;-76
2021/01/29 02:47:44;;;;;;;2.20;0.87;;;11.30;99.90;;;;;;5114453;28;20199;-75
2021/01/29 02:50:28;;;;;;;2.53;0.90;;;11.30;99.90;;;;;;5115021;28;20604;-75
2021/01/29 02:53:01;;;;;;;1.43;1.00;;;11.40;99.90;;;;;;5114450;28;20209;-76
2021/01/29 02:55:35;;;;;;;2.70;1.00;;;11.30;99.90;;;;;;5115007;28;20209;-75
2021/01/29 02:58:09;;;;;;;1.50;0.90;;;11.30;99.90;;;;;;5114578;28;20563;-76
2021/01/29 03:00:41;;;;;;;2.50;0.80;;;11.30;99.90;;;;;;5114831;28;20205;-76
2021/01/29 03:03:11;;;;;;;2.50;0.70;;;11.30;99.90;;;;;;5114532;28;20292;-75
2021/01/29 03:05:42;;;;;;;1.77;0.63;;;11.30;99.90;;;;;;5114632;28;20644;-76
2021/01/29 03:08:15;;;;;;;2.03;0.70;;;11.40;99.90;;;;;;5113259;28;20208;-76
2021/01/29 03:10:50;;;;;;;1.00;0.70;;;11.40;99.90;;;;;;5114489;28;20212;-76
2021/01/29 03:13:22;;;;;;;1.33;0.50;;;11.40;99.90;;;;;;5114295;28;20205;-75
2021/01/29 03:15:55;;;;;;;1.07;0.70;;;11.40;99.90;;;;;;5114315;28;20201;-76
2021/01/29 03:18:26;;;;;;;0.83;0.57;;;11.30;99.90;;;;;;5114112;28;20305;-75
2021/01/29 03:21:00;;;;;;;1.13;0.50;;;11.30;99.90;;;;;;5114960;27;20231;-76
2021/01/29 03:23:32;;;;;;;1.30;0.33;;;11.20;99.90;;;;;;5134533;27;20196;-75
2021/01/29 03:26:05;;;;;;;1.30;0.60;;;11.10;99.90;;;;;;5134451;27;20257;-76
2021/01/29 03:28:36;;;;;;;0.50;0.40;;;11.00;99.90;;;;;;5134499;27;20223;-76
2021/01/29 03:31:05;;;;;;;2.17;0.80;;;10.90;99.90;;;;;;5134614;27;20204;-75
2021/01/29 03:33:35;;;;;;;1.23;0.30;;;10.90;99.90;;;;;;5134402;27;20314;-75
2021/01/29 03:36:04;;;;;;;0.93;0.40;;;10.80;99.90;;;;;;5134467;27;20649;-75
2021/01/29 03:38:37;;;;;;;0.43;0.30;;;10.80;99.90;;;;;;5134217;27;20338;-76
2021/01/29 03:41:17;;;;;;;1.17;0.50;;;10.80;99.90;;;;;;5134521;27;20220;-75
2021/01/29 03:43:55;;;;;;;0.57;0.43;;;10.80;99.90;;;;;;5134163;27;20540;-76
2021/01/29 03:46:29;;;;;;;0.70;0.50;;;10.70;99.90;;;;;;5134924;27;20248;-76
2021/01/29 03:49:03;;;;;;;0.47;0.40;;;10.70;99.90;;;;;;5135680;27;20205;-76
2021/01/29 03:51:38;;;;;;;1.47;0.40;;;10.70;99.90;;;;;;5134644;27;20312;-75
2021/01/29 03:54:09;;;;;;;1.23;0.30;;;10.70;99.90;;;;;;5134146;27;20218;-76
2021/01/29 03:56:52;;;;;;;0.20;0.20;;;10.70;99.90;;;;;;5134389;27;20207;-76
2021/01/29 03:59:25;;;;;;;1.70;0.40;;;10.70;99.90;;;;;;5133895;27;20290;-76
2021/01/29 04:02:00;;;;;;;2.90;0.53;;;10.70;99.90;;;;;;5134034;27;20307;-76
2021/01/29 04:04:30;;;;;;;1.70;0.70;;;10.60;99.90;;;;;;5133825;27;20284;-78
2021/01/29 04:07:10;;;;;;;0.90;0.63;;;10.70;99.90;;;;;;5134001;27;20199;-76
2021/01/29 04:09:46;;;;;;;1.23;0.60;;;10.70;99.90;;;;;;5133607;27;20280;-77
2021/01/29 04:12:20;;;;;;;1.70;0.97;;;10.60;99.90;;;;;;5133824;27;20207;-77
2021/01/29 04:14:52;;;;;;;1.87;1.00;;;10.60;99.90;;;;;;5134229;27;20304;-76
2021/01/29 04:17:24;;;;;;;1.43;1.17;;;10.60;99.90;;;;;;5134075;27;20264;-76
2021/01/29 04:19:56;;;;;;;2.40;1.30;;;10.60;99.90;;;;;;5132660;27;20208;-76
2021/01/29 04:22:30;;;;;;;2.33;1.23;;;10.60;99.90;;;;;;5133817;27;20207;-76
2021/01/29 04:25:00;;;;;;;5.07;1.33;;;10.60;99.90;;;;;;5133798;27;20245;-76
2021/01/29 04:27:32;;;;;;;3.83;1.10;;;10.60;99.90;;;;;;5133531;27;20297;-76
2021/01/29 04:30:04;;;;;;;2.90;1.20;;;10.60;99.90;;;;;;5133170;27;20198;-76
2021/01/29 04:32:34;;;;;;;4.90;1.30;;;10.60;99.90;;;;;;5133568;27;20556;-77
2021/01/29 04:35:04;;;;;;;3.50;1.47;;;10.60;99.90;;;;;;5133201;27;20217;-76
2021/01/29 04:37:35;;;;;;;4.00;1.70;;;10.60;99.90;;;;;;5133393;27;20331;-77
2021/01/29 04:40:12;;;;;;;6.77;1.50;;;10.50;99.90;;;;;;5133184;27;20208;-77
2021/01/29 04:42:59;;;;;;;3.27;1.20;;;10.60;99.90;;;;;;5133450;27;20299;-76
2021/01/29 04:45:47;;;;;;;3.07;1.10;;;10.50;99.90;;;;;;5133273;28;20211;-76
2021/01/29 04:48:19;;;;;;;8.10;1.30;;;10.50;99.90;;;;;;5132904;28;20288;-76
2021/01/29 04:51:14;;;;;;;6.33;1.27;;;10.50;99.90;;;;;;5133539;28;20197;-76
2021/01/29 04:54:16;;;;;;;6.23;1.23;;;10.60;99.90;;;;;;5133043;28;20226;-76
2021/01/29 04:57:11;;;;;;;5.50;1.70;;;10.60;99.90;;;;;;5132764;27;20215;-77
2021/01/29 05:00:10;;;;;;;5.23;1.20;;;10.50;99.90;;;;;;5129113;27;20613;-77
2021/01/29 05:03:13;;;;;;;9.13;1.40;;;10.50;99.90;;;;;;5133434;28;20543;-76
2021/01/29 05:06:18;;;;;;;3.77;1.10;;;10.50;99.90;;;;;;5132625;28;20283;-77
2021/01/29 05:09:17;;;;;;;9.17;1.47;;;10.30;99.90;;;;;;5133047;28;20210;-76
2021/01/29 05:12:00;;;;;;;7.53;1.73;;;10.30;99.90;;;;;;5133023;27;20310;-76
2021/01/29 05:14:56;;;;;;;7.20;1.50;;;10.20;99.90;;;;;;5116389;28;20313;-76
2021/01/29 05:17:44;;;;;;;7.23;1.40;;;10.20;99.90;;;;;;5104193;28;20541;-76
2021/01/29 05:20:55;;;;;;;9.83;1.87;;;10.20;99.90;;;;;;5108867;28;20259;-77
2021/01/29 05:24:02;;;;;;;13.70;2.60;;;10.20;99.90;;;;;;5064237;28;20494;-76
2021/01/29 05:27:12;;;;;;;14.37;2.20;;;10.20;99.90;;;;;;5104544;28;20210;-76
2021/01/29 05:29:49;;;;;;;13.30;1.93;;;10.20;99.90;;;;;;5103048;28;20654;-76
2021/01/29 05:32:46;;;;;;;13.03;2.00;;;10.20;99.90;;;;;;5132469;27;20303;-76
2021/01/29 05:35:30;;;;;;;6.50;1.80;;;10.20;99.90;;;;;;5133058;27;20221;-75
2021/01/29 05:38:18;;;;;;;10.43;1.90;;;10.10;99.90;;;;;;5131869;27;20214;-76
2021/01/29 05:41:17;;;;;;;9.33;2.13;;;10.20;99.90;;;;;;5116147;27;20204;-76
2021/01/29 05:44:10;;;;;;;10.40;2.37;;;10.20;99.90;;;;;;5126030;27;20185;-75
2021/01/29 05:46:41;;;;;;;17.70;2.10;;;10.20;99.90;;;;;;5130837;27;20198;-77
2021/01/29 05:49:20;;;;;;;14.50;2.07;;;10.10;99.90;;;;;;5134120;27;20204;-76
2021/01/29 05:52:19;;;;;;;12.67;2.00;;;10.10;99.90;;;;;;5131043;27;20198;-76
2021/01/29 05:55:19;;;;;;;19.90;2.93;;;10.10;99.90;;;;;;5133068;27;20231;-76
2021/01/29 05:58:24;;;;;;;11.13;2.00;;;10.10;99.90;;;;;;5115736;27;20215;-76
2021/01/29 06:01:33;;;;;;;14.40;2.67;;;10.20;99.90;;;;;;5110686;27;20206;-77
2021/01/29 06:04:26;;;;;;;12.90;2.07;;;10.10;99.90;;;;;;5131777;27;20275;-77
2021/01/29 06:07:16;;;;;;;16.83;3.10;;;10.20;99.90;;;;;;5131352;27;20283;-76
2021/01/29 06:10:15;;;;;;;17.77;2.80;;;10.20;99.90;;;;;;5102650;27;20535;-76
2021/01/29 06:12:58;;;;;;;15.37;3.00;;;10.20;99.90;;;;;;5134053;27;20212;-77
2021/01/29 06:15:52;;;;;;;19.67;3.00;;;10.20;99.90;;;;;;5129257;27;20322;-77
2021/01/29 06:18:40;;;;;;;17.23;2.70;;;10.10;99.90;;;;;;5117468;27;20193;-77
2021/01/29 06:21:30;;;;;;;16.90;2.67;;;10.00;99.90;;;;;;5118135;27;20202;-77
2021/01/29 06:24:24;;;;;;;19.20;2.40;;;9.90;99.90;;;;;;5125804;27;20223;-77
2021/01/29 06:27:26;;;;;;;19.97;2.90;;;9.90;99.90;;;;;;5131517;27;20261;-77
2021/01/29 06:30:13;;;;;;;23.63;3.23;;;9.80;99.90;;;;;;5129440;27;20969;-77
2021/01/29 06:33:04;;;;;;;19.50;2.80;;;9.80;99.90;;;;;;5135827;27;20197;-76
2021/01/29 06:35:41;;;;;;;19.97;3.00;;;9.80;99.90;;;;;;5125599;27;20311;-77
2021/01/29 06:38:36;;;;;;;23.70;3.33;;;9.90;99.90;;;;;;5124108;27;20295;-77
2021/01/29 06:41:44;;;;;;;20.03;2.97;;;10.00;99.90;;;;;;5113145;27;20571;-76
2021/01/29 06:44:22;;;;;;;18.50;2.93;;;10.00;99.90;;;;;;5109580;27;20204;-78
2021/01/29 06:47:04;;;;;;;15.47;2.67;;;10.10;99.90;;;;;;5113241;27;20211;-76
2021/01/29 06:49:55;;;;;;;21.13;3.00;;;10.10;99.90;;;;;;5111809;27;20599;-77
2021/01/29 06:53:03;;;;;;;24.50;3.33;;;10.10;99.90;;;;;;5107892;27;20245;-77
2021/01/29 06:56:08;;;;;;;22.30;3.40;;;10.10;99.90;;;;;;5107816;27;20566;-77
2021/01/29 06:59:08;;;;;;;22.73;3.47;;;10.00;99.90;;;;;;5100335;27;20211;-77
2021/01/29 07:02:04;;;;;;;21.80;3.33;;;10.00;99.90;;;;;;5113236;27;20204;-77
2021/01/29 07:04:59;;;;;;;23.70;3.60;;;10.00;99.90;;;;;;5097825;27;20569;-77
2021/01/29 07:07:36;;;;;;;18.00;2.43;;;10.00;99.90;;;;;;5117281;27;20205;-77
2021/01/29 07:10:38;;;;;;;15.40;2.53;;;9.90;99.90;;;;;;5117225;27;20297;-78
2021/01/29 07:13:14;;;;;;;22.30;3.27;;;9.80;99.90;;;;;;5107232;28;20209;-78
2021/01/29 07:15:57;;;;;;;24.83;2.90;;;9.80;99.90;;;;;;5112559;28;20241;-78
2021/01/29 07:18:51;;;;;;;20.33;3.63;;;9.80;99.90;;;;;;5112699;28;20565;-77
2021/01/29 07:21:37;;;;;;;27.83;3.97;;;9.90;99.90;;;;;;5113437;28;20234;-78
2021/01/29 07:24:24;;;;;;;21.10;2.83;;;9.90;99.90;;;;;;5099091;27;20194;-78
2021/01/29 07:27:03;;;;;;;19.80;3.60;;;9.80;99.90;;;;;;5109620;27;20633;-77
2021/01/29 07:29:57;;;;;;;27.43;3.03;;;9.80;99.90;;;;;;5119986;27;20220;-77
2021/01/29 07:32:37;;;;;;;25.70;4.37;;;9.80;99.90;;;;;;5099867;27;20268;-78
2021/01/29 07:35:10;;;;;;;22.50;3.67;;;9.80;99.90;;;;;;5115183;27;20247;-78
2021/01/29 07:38:02;;;;;;;23.03;3.70;;;9.80;99.90;;;;;;5111943;27;20260;-77
2021/01/29 07:40:47;;;;;;;29.77;3.90;;;9.70;99.90;;;;;;5108789;27;20221;-76
2021/01/29 07:43:35;;;;;;;24.70;4.57;;;9.70;99.90;;;;;;5123502;27;20666;-77
2021/01/29 07:46:32;;;;;;;35.50;4.43;;;9.70;99.90;;;;;;5114203;27;20204;-77
2021/01/29 07:49:31;;;;;;;34.03;4.50;;;9.70;99.90;;;;;;5123261;27;20216;-77
2021/01/29 07:52:06;;;;;;;33.40;4.23;;;9.80;99.90;;;;;;5118059;27;20199;-77
2021/01/29 07:55:07;;;;;;;27.97;3.73;;;9.80;99.90;;;;;;5119980;27;20241;-77
2021/01/29 07:57:58;;;;;;;22.07;3.90;;;9.90;99.90;;;;;;5122800;27;20220;-77
2021/01/29 08:00:36;;;;;;;27.43;4.20;;;9.90;99.90;;;;;;5117098;27;20240;-77
2021/01/29 08:03:21;;;;;;;34.60;5.13;;;9.90;99.90;;;;;;5095580;27;20636;-77
2021/01/29 08:05:59;;;;;;;22.53;3.20;;;9.90;99.90;;;;;;5125615;27;20752;-77
2021/01/29 08:08:31;;;;;;;28.00;4.10;;;9.90;99.90;;;;;;5121359;27;20294;-77
2021/01/29 08:11:01;;;;;;;29.57;4.40;;;9.90;99.90;;;;;;5119856;27;20216;-77
2021/01/29 08:13:41;;;;;;;35.83;4.97;;;10.00;99.90;;;;;;5121938;27;20282;-78
2021/01/29 08:16:27;;;;;;;30.43;4.13;;;10.00;99.90;;;;;;5118509;27;20208;-77
2021/01/29 08:18:59;;;;;;;30.53;3.70;;;10.10;99.90;;;;;;5122209;27;20205;-77
2021/01/29 08:22:02;;;;;;;29.23;4.17;;;10.10;99.90;;;;;;5119614;27;20206;-77
2021/01/29 08:24:45;;;;;;;24.93;4.70;;;10.00;99.90;;;;;;5122221;27;20208;-77
2021/01/29 08:27:32;;;;;;;25.47;3.80;;;10.00;99.90;;;;;;5122863;27;20331;-77
2021/01/29 08:30:24;;;;;;;29.93;4.50;;;10.10;99.90;;;;;;5122153;27;20712;-77
2021/01/29 08:33:18;;;;;;;30.40;3.80;;;10.20;99.90;;;;;;5118320;27;20628;-77
2021/01/29 08:36:15;;;;;;;28.47;4.47;;;10.40;99.90;;;;;;5124796;27;20228;-77
2021/01/29 08:38:52;;;;;;;31.07;4.57;;;10.50;99.90;;;;;;5114662;27;20233;-77
2021/01/29 08:41:29;;;;;;;29.23;4.13;;;10.50;99.90;;;;;;5117982;27;20231;-77
2021/01/29 08:44:20;;;;;;;21.47;4.13;;;10.50;99.90;;;;;;5101885;28;20195;-77
2021/01/29 08:47:18;;;;;;;26.23;4.33;;;10.60;99.90;;;;;;5118732;27;20292;-78
2021/01/29 08:50:07;;;;;;;27.33;4.70;;;10.70;99.90;;;;;;5109113;28;20200;-77
2021/01/29 08:53:05;;;;;;;28.27;4.53;;;10.80;99.90;;;;;;5117315;28;20212;-77
2021/01/29 08:55:44;;;;;;;24.43;3.73;;;10.90;99.90;;;;;;5119312;28;20310;-77
2021/01/29 08:58:31;;;;;;;20.43;3.67;;;10.80;99.90;;;;;;5120315;28;20539;-79
2021/01/29 09:01:03;;;;;;;30.03;4.10;;;10.80;99.90;;;;;;5119941;28;20533;-78
2021/01/29 09:03:37;;;;;;;32.97;4.60;;;10.70;99.90;;;;;;5108845;28;20603;-78
2021/01/29 09:06:12;;;;;;;25.27;4.47;;;10.80;99.90;;;;;;5120235;27;20537;-78
2021/01/29 09:08:40;;;;;;;33.73;4.40;;;10.90;99.90;;;;;;5113166;27;20257;-78
2021/01/29 09:11:15;;;;;;;25.77;4.27;;;10.90;99.90;;;;;;5108759;27;20348;-78
2021/01/29 09:13:44;;;;;;;31.30;4.83;;;11.00;99.90;;;;;;5097729;27;20286;-78
2021/01/29 09:16:20;;;;;;;25.43;3.83;;;11.00;99.90;;;;;;5124571;27;20201;-77
2021/01/29 09:18:51;;;;;;;27.50;4.00;;;11.10;99.90;;;;;;5121499;27;20189;-78
2021/01/29 09:21:28;;;;;;;20.63;3.70;;;11.10;99.90;;;;;;5123014;27;20221;-78
2021/01/29 09:24:04;;;;;;;24.03;3.43;;;11.20;99.90;;;;;;5102085;27;20585;-78
2021/01/29 09:26:34;;;;;;;26.33;3.63;;;11.20;99.90;;;;;;5115141;27;20293;-78
2021/01/29 09:29:12;;;;;;;32.23;4.60;;;11.20;99.90;;;;;;5117692;27;20631;-78
2021/01/29 09:31:41;;;;;;;29.40;4.13;;;11.20;99.90;;;;;;5102363;27;20292;-78
2021/01/29 09:34:12;;;;;;;15.97;2.90;;;11.10;99.90;;;;;;5114850;27;20727;-77
2021/01/29 09:36:47;;;;;;;20.03;3.97;;;11.00;99.90;;;;;;5119269;27;20198;-78
2021/01/29 09:39:21;;;;;;;31.13;4.13;;;11.00;99.90;;;;;;5108524;27;20211;-78
2021/01/29 09:41:55;;;;;;;26.17;4.30;;;10.80;99.90;;;;;;5117670;27;20209;-78
2021/01/29 09:44:27;;;;;;;26.80;3.83;;;10.70;99.90;;;;;;5118697;27;20615;-78
2021/01/29 09:46:56;;;;;;;27.33;4.20;;;10.70;99.90;;;;;;5123207;27;20618;-78
2021/01/29 09:49:26;;;;;;;25.70;3.90;;;10.80;99.90;;;;;;5129617;27;20205;-78
2021/01/29 09:52:09;;;;;;;22.23;3.27;;;11.00;99.90;;;;;;5126751;27;20202;-78
2021/01/29 09:54:48;;;;;;;24.67;4.07;;;11.20;99.90;;;;;;5126728;27;20244;-78
2021/01/29 09:57:20;;;;;;;22.23;3.70;;;11.40;99.90;;;;;;5127895;27;20233;-78
2021/01/29 10:00:02;;;;;;;17.47;3.73;;;11.50;99.90;;;;;;5130274;27;20210;-78
2021/01/29 10:02:35;;;;;;;24.17;3.33;;;11.50;99.90;;;;;;5118524;27;20204;-77
2021/01/29 10:05:21;;;;;;;29.30;3.83;;;11.70;99.90;;;;;;5127339;27;20292;-78
2021/01/29 10:07:58;;;;;;;23.17;3.73;;;11.90;99.90;;;;;;5122597;27;20208;-78
2021/01/29 10:10:37;;;;;;;23.40;3.90;;;11.80;99.90;;;;;;5124231;27;20226;-78
2021/01/29 10:13:16;;;;;;;24.90;4.63;;;12.00;99.90;;;;;;5135242;27;20212;-78
2021/01/29 10:15:48;;;;;;;26.97;3.53;;;12.10;99.90;;;;;;5121212;27;20640;-77
2021/01/29 10:18:21;;;;;;;31.43;3.60;;;12.00;99.90;;;;;;5133544;27;20220;-78
2021/01/29 10:20:50;;;;;;;20.03;3.30;;;11.90;99.90;;;;;;5119940;27;20294;-78
2021/01/29 10:23:26;;;;;;;32.33;4.53;;;11.80;99.90;;;;;;5123352;27;20273;-78
2021/01/29 10:26:03;;;;;;;27.67;4.23;;;11.70;99.90;;;;;;5120892;27;20240;-77
2021/01/29 10:29:10;;;;;;;25.57;4.20;;;11.50;99.90;;;;;;5127879;27;20299;-77
2021/01/29 10:31:45;;;;;;;30.63;4.20;;;11.50;99.90;;;;;;5110095;27;20193;-78
2021/01/29 10:34:24;;;;;;;27.07;3.80;;;11.30;99.90;;;;;;5126929;27;20256;-78
2021/01/29 10:37:02;;;;;;;29.07;4.37;;;11.40;99.90;;;;;;5126567;27;20315;-77
2021/01/29 10:39:57;;;;;;;27.50;4.70;;;11.30;99.90;;;;;;5126319;27;20636;-78
2021/01/29 10:42:30;;;;;;;27.37;4.57;;;11.50;99.90;;;;;;5124612;27;20192;-78
2021/01/29 10:44:56;;;;;;;33.70;4.20;;;11.80;99.90;;;;;;5125388;27;20733;-77
2021/01/29 10:47:33;;;;;;;33.87;4.10;;;11.90;99.90;;;;;;5125937;27;20342;-78
2021/01/29 10:50:09;;;;;;;30.40;5.20;;;11.90;99.90;;;;;;5134331;27;20224;-77
2021/01/29 10:53:01;;;;;;;25.30;4.03;;;12.00;99.90;;;;;;5129704;27;20298;-77
2021/01/29 10:55:31;;;;;;;29.50;4.60;;;12.20;99.90;;;;;;5127957;27;20231;-77
2021/01/29 10:58:28;;;;;;;25.67;4.20;;;12.40;99.90;;;;;;5127959;27;20225;-77
2021/01/29 11:00:59;;;;;;;19.73;3.93;;;12.30;99.90;;;;;;5079851;27;20265;-78
2021/01/29 11:03:46;;;;;;;22.97;3.80;;;12.40;99.90;;;;;;5119109;27;20200;-78
2021/01/29 11:06:18;;;;;;;26.10;3.80;;;12.40;99.90;;;;;;5124772;27;20212;-77
2021/01/29 11:08:49;;;;;;;24.70;3.47;;;12.40;99.90;;;;;;5125748;27;20193;-78
2021/01/29 11:11:22;;;;;;;26.07;4.33;;;12.40;99.90;;;;;;5124554;27;20225;-79
2021/01/29 11:13:58;;;;;;;29.73;3.50;;;12.40;99.90;;;;;;5129895;27;20266;-78
2021/01/29 11:16:44;;;;;;;37.13;5.00;;;12.30;99.90;;;;;;5121888;27;20205;-78
2021/01/29 11:19:23;;;;;;;24.37;4.00;;;12.20;99.90;;;;;;5113411;27;20198;-79
2021/01/29 11:22:05;;;;;;;27.80;4.73;;;12.00;99.90;;;;;;5121152;27;20208;-78
2021/01/29 11:24:41;;;;;;;24.60;3.87;;;11.90;99.90;;;;;;5124764;27;20198;-78
2021/01/29 11:27:18;;;;;;;25.07;3.77;;;12.00;99.90;;;;;;5124258;27;20194;-78
2021/01/29 11:29:52;;;;;;;25.57;4.30;;;12.50;99.90;;;;;;5113494;27;20249;-78
2021/01/29 11:32:32;;;;;;;25.57;3.87;;;12.80;99.90;;;;;;5118274;27;20202;-78
2021/01/29 11:35:20;;;;;;;30.03;4.40;;;12.90;99.90;;;;;;5111483;27;20792;-78
2021/01/29 11:38:08;;;;;;;24.87;4.00;;;12.90;99.90;;;;;;5128873;27;20721;-78
2021/01/29 11:40:42;;;;;;;29.13;4.70;;;12.70;99.90;;;;;;5126594;27;20197;-78
2021/01/29 11:43:13;;;;;;;22.90;4.13;;;12.30;99.90;;;;;;5117719;27;20588;-78
2021/01/29 11:45:47;;;;;;;26.47;4.30;;;11.70;99.90;;;;;;5127195;27;20201;-81
2021/01/29 11:48:21;;;;;;;26.40;3.77;;;11.30;99.90;;;;;;5129561;27;20375;-77
2021/01/29 11:50:55;;;;;;;24.57;4.83;;;11.00;99.90;;;;;;5133772;27;20203;-77
2021/01/29 11:53:33;;;;;;;22.47;3.20;;;10.80;99.90;;;;;;5131058;27;20286;-77
2021/01/29 11:56:06;;;;;;;34.67;4.70;;;10.70;99.90;;;;;;5122255;27;20237;-77
2021/01/29 11:58:39;;;;;;;23.77;3.53;;;10.50;99.90;;;;;;5126766;27;20301;-77
2021/01/29 12:01:12;;;;;;;23.73;4.03;;;10.40;99.90;;;;;;5125241;27;20306;-77
2021/01/29 12:03:45;;;;;;;26.70;3.20;;;10.30;99.90;;;;;;5123769;27;20284;-77
2021/01/29 12:06:17;;;;;;;17.27;3.13;;;10.30;99.90;;;;;;5123295;27;20296;-77
2021/01/29 12:08:56;;;;;;;16.43;3.03;;;10.50;99.90;;;;;;5124606;27;20673;-77
2021/01/29 12:11:28;;;;;;;23.47;3.03;;;10.30;99.90;;;;;;5117918;27;20621;-77
2021/01/29 12:14:03;;;;;;;20.37;3.07;;;10.30;99.90;;;;;;5118233;27;20257;-77
2021/01/29 12:16:32;;;;;;;25.07;3.53;;;10.40;99.90;;;;;;5119992;27;20226;-77
2021/01/29 12:19:01;;;;;;;32.47;3.83;;;10.60;99.90;;;;;;5117936;27;20216;-76
2021/01/29 12:21:36;;;;;;;21.80;3.13;;;10.90;99.90;;;;;;5126716;27;20288;-77
2021/01/29 12:24:08;;;;;;;21.97;3.40;;;11.10;99.90;;;;;;5123140;27;20197;-76
2021/01/29 12:26:41;;;;;;;24.47;4.03;;;11.40;99.90;;;;;;5125781;27;20206;-76
2021/01/29 12:29:23;;;;;;;29.47;4.50;;;11.50;99.90;;;;;;5125614;27;20197;-76
2021/01/29 12:32:27;;;;;;;26.17;3.90;;;11.60;99.90;;;;;;5122730;27;20200;-76
2021/01/29 12:35:02;;;;;;;26.93;3.37;;;11.60;99.90;;;;;;5115871;27;20236;-77
2021/01/29 12:37:32;;;;;;;23.10;3.40;;;11.60;99.90;;;;;;5124899;27;20286;-76
2021/01/29 12:40:06;;;;;;;25.33;3.70;;;11.50;99.90;;;;;;5119159;27;20303;-77
2021/01/29 12:42:50;;;;;;;24.00;3.10;;;11.40;99.90;;;;;;5124684;27;20290;-76
2021/01/29 12:45:23;;;;;;;20.53;3.63;;;11.30;99.90;;;;;;5121610;27;20199;-77
2021/01/29 12:47:59;;;;;;;19.17;2.97;;;11.10;99.90;;;;;;5126170;28;20282;-77
2021/01/29 12:50:43;;;;;;;14.47;2.60;;;11.00;99.90;;;;;;5123496;28;20246;-77
2021/01/29 12:53:15;;;;;;;14.77;2.90;;;10.50;99.90;;;;;;5123158;28;20283;-76
2021/01/29 12:55:50;;;;;;;18.07;3.10;;;10.20;99.90;;;;;;5123548;28;20296;-76
2021/01/29 12:58:17;;;;;;;18.27;2.70;;;10.10;99.90;;;;;;5121185;28;20200;-77
2021/01/29 13:00:45;;;;;;;18.10;3.53;;;10.00;99.90;;;;;;5125133;27;20211;-77
2021/01/29 13:03:28;;;;;;;24.87;4.50;;;9.90;99.90;;;;;;5121547;28;20719;-78
2021/01/29 13:06:31;;;;;;;18.00;2.97;;;9.80;99.90;;;;;;5125252;28;20223;-78
2021/01/29 13:09:33;;;;;;;20.50;2.43;;;10.00;99.90;;;;;;5123210;28;20204;-77
2021/01/29 13:12:11;;;;;;;13.33;1.90;;;9.90;99.90;;;;;;5121928;28;20198;-76
2021/01/29 13:14:52;;;;;;;15.47;1.67;;;9.80;99.90;;;;;;5121416;28;20700;-76
2021/01/29 13:17:32;;;;;;;14.77;1.97;;;9.80;99.90;;;;;;5121245;27;20207;-76
2021/01/29 13:20:03;;;;;;;11.80;1.83;;;9.90;99.90;;;;;;5126186;28;20688;-77
2021/01/29 13:22:45;;;;;;;14.97;1.97;;;10.00;99.90;;;;;;5130953;28;20351;-77
2021/01/29 13:25:22;;;;;;;13.63;2.27;;;10.20;99.90;;;;;;5118925;28;20661;-77
2021/01/29 13:27:55;;;;;;;13.93;2.37;;;10.20;99.90;;;;;;5123890;28;20241;-77
2021/01/29 13:30:27;;;;;;;13.93;2.13;;;10.20;99.90;;;;;;5123114;28;20298;-77
2021/01/29 13:32:55;;;;;;;14.13;2.30;;;10.10;99.90;;;;;;5120299;28;20627;-77
2021/01/29 13:35:26;;;;;;;16.47;2.77;;;10.10;99.90;;;;;;5124731;28;20221;-77
2021/01/29 13:38:03;;;;;;;12.50;2.13;;;10.00;99.90;;;;;;5120675;28;20563;-77
2021/01/29 13:40:31;;;;;;;17.77;2.87;;;10.00;99.90;;;;;;5124672;27;20222;-77
2021/01/29 13:43:08;;;;;;;22.30;2.80;;;10.20;99.90;;;;;;5124292;28;20326;-77